x

Destruction Island, Wa (desw1) Weather Station

9:00 - Fri 27th Feb 2015 All times are PST. -8 hours from GMT.

  • Wind
    16mph, 21mph gusts
  • Luft Temp 49°f
  • Sea Pressure 1011.7mb
  • Destruction Island, Wa
  • Destruction Island, Wa

More Historic Weather Station data

Upgrade to MSW Pro to gain access to the past 30 days of data for over 8000 Wavebouys and Weather Stations around the globe.

Join Pro

Comparision Forecast

View Surf forecast
   
Fr 02/27 9:00 16 21 mph 1011.7mb 49f
8:00 7 8 mph 1010.9mb 49f
7:00  -  1 mph 1010mb 49f
6:00 17 20 mph 1008.6mb 50f
5:00 15 16 mph 1007.9mb 50f
4:00 13 15 mph 1007.6mb 50f
3:00 14 15 mph 1007.1mb 50f
2:00 7 8 mph 1007mb 50f
1:00 11 13 mph 1007mb 48f
12:00 10 11 mph 1007.4mb 47f
11:00 6 7 mph 1007.3mb 48f
10:00 2
mph
1006.8mb 48f
9:00 5 6 mph 1006.5mb 48f
8:00 3 5 mph 1005.9mb 47f
7:00 2
mph
1005.6mb 47f
6:00 6 7 mph 1005.9mb 47f
5:00 7
mph
1006mb 47f
4:00 3 5 mph 1006mb 47f
3:00 8
mph
1006.4mb 47f
2:00 7 8 mph 1007mb 46f
1:00 6 7 mph 1007.3mb 48f
12:00 15 16 mph 1007.8mb 49f
Do 02/26 11:00 14 16 mph 1008.6mb 49f
10:00 21 23 mph 1009mb 49f
9:00 22 24 mph 1009.8mb 49f
8:00 21 22 mph 1011.1mb 49f
7:00 18 21 mph 1012.2mb 49f
6:00 16 17 mph 1013.5mb 49f
5:00 14 16 mph 1014.8mb 49f
4:00 11 14 mph 1015.7mb 49f
3:00 15 16 mph 1016.6mb 49f
2:00 8 10 mph 1017.5mb 49f
1:00 13 14 mph 1018.3mb 49f
12:00 11 13 mph 1019.5mb 49f
11:00 8 9 mph 1020.2mb 50f
10:00 7 8 mph 1020.7mb 48f
9:00 5 6 mph 1021.2mb 48f
8:00 2
mph
1021.6mb 47f
7:00  -  1 mph 1021.5mb 47f
6:00 6 7 mph 1021.4mb 47f
5:00 5 6 mph 1022.3mb 47f
4:00 5 6 mph 1022.6mb 47f
3:00 6
mph
1023.4mb 47f
2:00 5 6 mph 1023.8mb 47f
1:00 7 8 mph 1023.9mb 47f
12:00 9 10 mph 1024.6mb 47f
Mi 02/25 11:00 8 9 mph 1025.3mb 47f
10:00 6 7 mph 1025.4mb 47f
9:00 2 3 mph 1026mb 47f
8:00 3
mph
1026.1mb 48f
7:00 1 2 mph 1026.4mb 48f
6:00 5
mph
1026.9mb 48f
5:00 8
mph
1027.4mb 48f
4:00 10 11 mph 1027.9mb 49f
3:00 7 8 mph 1028.2mb 48f
2:00 7 9 mph 1028.9mb 49f
1:00 6 7 mph 1028.8mb 49f
12:00 6 7 mph 1029.8mb 49f
11:00 6 7 mph 1029.8mb 48f
10:00 8 10 mph 1029.7mb 47f
9:00 10 11 mph 1029.7mb 47f
8:00 10 11 mph 1030.1mb 47f
7:00 9 10 mph 1029.8mb 47f
6:00 8 9 mph 1029.6mb 47f
5:00 3 5 mph 1030mb 47f
4:00 5
mph
1029.5mb 47f
3:00 7 8 mph 1030mb 48f
2:00 7 8 mph 1029.7mb 48f
1:00 7 8 mph 1029.2mb 49f
12:00 8 9 mph 1029.1mb 49f
Di 02/24 11:00 10 11 mph 1029.2mb 49f
10:00 9 13 mph 1029.2mb 48f
9:00 10 11 mph 1029mb 49f
8:00 10 11 mph 1028.8mb 49f
7:00  -  1 mph 1029.1mb 48f
6:00  -  mph 1028.8mb 48f
5:00 1 2 mph 1028.3mb 50f
4:00 6 7 mph 1028.8mb 48f
3:00 2 3 mph 1028.9mb 50f
2:00 5
mph
1029.1mb 50f
1:00 2 3 mph 1029.5mb 52f
12:00 1 3 mph 1029.9mb 50f
11:00  -  2 mph 1029.6mb 49f
10:00 2 3 mph 1029.5mb 48f
9:00 7
mph
1029.6mb 46f
8:00 7 8 mph 1029.5mb 44f
7:00 6 7 mph 1029.4mb 43f